Main page
METAR-TAF:

METAR-TAF

Airports :

Dublin Airport

Dublin, Ireland

latitude: 53-26N, longitude: 006-15W, elevation: 68 m

Current weather observation

The report was made 41 minutes ago, at 21:00 UTC
Wind 8 kt from the Northwest
Temperature 4°C
Humidity 87%
Pressure 1027 hPa
Visibility 10 km or more
Few clouds at a height of 2000 ft

METAR: EIDW 172100Z 31008KT 9999 FEW020 04/02 Q1027 NOSIG

Time: 22:41 (21:41 UTC)

Forecast

The report was made 4 hours and 41 minutes ago, at 17:00 UTC
Forecast valid from 17 at 18 UTC to 18 at 18 UTC
Wind 6 kt from the Northwest
Visibility 10 km or more
Few clouds at a height of 2400 ft
Broken clouds at a height of 4000 ft
Probability 30% :
Temporary
from 18 at 03 UTC to 18 at 08 UTC
Wind 4 kt from the West
Visibility: 3000 m
mist

TAF: EIDW 171700Z 1718/1818 31006KT 9999 FEW024 BKN040 PROB30 TEMPO 1803/1808 27004KT 3000 BR

Weather observations and forecasts of more than 4000 airports (METAR and TAF reports).

The available stations are represented by yellow and red dots on the map.

Hover mouse over dot to see the name of the station.

Then click to see weather observations and forecasts.

To change the map : click on the green buttons with a black cross to zoom in, on the green button with a dash to zoom out, or on the green arrows for adjacent maps.


METAR-TAF: